Time;durP1;ratioP1;P1;durP2;ratioP2;P2;SDS_P1;SDS_P2;PMS_P1;PMS_P2;Temp;Humidity;BMP_temperature;BMP_pressure;BME280_temperature;BME280_humidity;BME280_pressure;Samples;Min_cycle;Max_cycle;Signal;HPM_P1;HPM_P2
2021/06/22 00:01:30;;;;;;;9.88;4.03;;;;;;;17.07;81.66;100039.19;5041935;28;20032;-73
2021/06/22 00:03:55;;;;;;;9.02;3.80;;;;;;;17.09;81.22;100037.66;5038658;28;20494;-73
2021/06/22 00:06:21;;;;;;;10.25;4.07;;;;;;;17.01;83.08;100041.41;5013017;28;20029;-74
2021/06/22 00:08:46;;;;;;;8.80;4.20;;;;;;;16.99;82.34;100040.91;5048884;28;20482;-73
2021/06/22 00:11:12;;;;;;;10.43;4.32;;;;;;;16.95;82.08;100042.78;5041042;28;20066;-73
2021/06/22 00:13:37;;;;;;;7.68;3.55;;;;;;;16.97;81.42;100043.28;5038062;28;20029;-73
2021/06/22 00:16:03;;;;;;;7.78;3.60;;;;;;;16.97;81.56;100048.88;5037271;28;20029;-74
2021/06/22 00:18:29;;;;;;;12.63;4.00;;;;;;;16.96;82.13;100041.63;5044146;28;20452;-74
2021/06/22 00:20:54;;;;;;;8.80;4.45;;;;;;;16.95;82.72;100048.41;5047841;28;20029;-74
2021/06/22 00:23:20;;;;;;;8.43;3.80;;;;;;;16.92;82.58;100043.50;5040316;28;20038;-73
2021/06/22 00:25:45;;;;;;;10.77;4.63;;;;;;;16.91;81.81;100042.69;5020233;28;20029;-74
2021/06/22 00:28:11;;;;;;;11.75;5.18;;;;;;;16.87;82.70;100041.72;5042019;28;20033;-74
2021/06/22 00:30:36;;;;;;;6.68;4.00;;;;;;;16.89;82.11;100036.59;5024842;28;20066;-73
2021/06/22 00:33:02;;;;;;;7.80;4.70;;;;;;;16.87;82.65;100038.09;5019797;28;20031;-73
2021/06/22 00:35:27;;;;;;;11.85;6.05;;;;;;;16.77;84.42;100036.59;5048429;28;20052;-73
2021/06/22 00:37:53;;;;;;;11.32;5.50;;;;;;;16.76;85.21;100034.91;5041380;28;20022;-74
2021/06/22 00:40:18;;;;;;;14.32;6.78;;;;;;;16.66;85.90;100033.38;5044124;28;20080;-74
2021/06/22 00:42:44;;;;;;;15.27;6.60;;;;;;;16.54;87.14;100030.50;5042251;28;20421;-74
2021/06/22 00:45:11;;;;;;;9.68;6.47;;;;;;;16.48;87.06;100035.53;5037863;28;20092;-74
2021/06/22 00:47:36;;;;;;;13.07;5.90;;;;;;;16.54;86.10;100030.50;5043519;28;20034;-74
2021/06/22 00:50:02;;;;;;;15.23;7.28;;;;;;;16.46;86.68;100031.41;5042322;28;20044;-74
2021/06/22 00:52:28;;;;;;;14.60;7.05;;;;;;;16.38;87.65;100035.13;5022545;28;20159;-74
2021/06/22 00:54:54;;;;;;;11.90;6.18;;;;;;;16.44;86.08;100028.16;5042027;28;20121;-74
2021/06/22 00:57:20;;;;;;;13.20;6.55;;;;;;;16.42;86.26;100027.69;5039517;28;20056;-74
2021/06/22 00:59:46;;;;;;;12.65;7.47;;;;;;;16.33;86.75;100033.38;5043230;28;20108;-74
2021/06/22 01:02:12;;;;;;;12.32;6.95;;;;;;;16.38;86.30;100027.56;5042292;28;20112;-74
2021/06/22 01:04:37;;;;;;;9.35;5.35;;;;;;;16.47;85.03;100035.88;5033387;28;20036;-74
2021/06/22 01:07:03;;;;;;;11.63;6.90;;;;;;;16.46;85.17;100032.22;5043874;28;20079;-74
2021/06/22 01:09:29;;;;;;;9.63;5.43;;;;;;;16.49;84.32;100030.72;5042129;28;20029;-74
2021/06/22 01:11:55;;;;;;;9.10;5.10;;;;;;;16.53;83.38;100035.31;5030227;28;20086;-74
2021/06/22 01:14:21;;;;;;;12.75;4.82;;;;;;;16.55;83.41;100029.38;5043585;28;20030;-74
2021/06/22 01:16:46;;;;;;;10.07;4.90;;;;;;;16.60;82.96;100028.31;5041862;28;20030;-74
2021/06/22 01:19:13;;;;;;;9.85;4.57;;;;;;;16.62;82.60;100038.00;5044070;28;20022;-74
2021/06/22 01:21:39;;;;;;;9.68;4.65;;;;;;;16.64;82.94;100026.47;5039944;28;20036;-74
2021/06/22 01:24:08;;;;;;;8.90;4.70;;;;;;;16.66;82.81;100026.91;5037224;28;20037;-74
2021/06/22 01:26:39;;;;;;;9.48;4.32;;;;;;;16.65;82.23;100031.72;5049932;28;20033;-74
2021/06/22 01:29:05;;;;;;;8.05;4.78;;;;;;;16.65;82.78;100033.69;5041494;28;20040;-75
2021/06/22 01:31:31;;;;;;;8.43;4.68;;;;;;;16.67;82.21;100029.38;5037724;28;20033;-75
2021/06/22 01:33:56;;;;;;;8.50;4.63;;;;;;;16.69;82.99;100037.47;5042086;28;20033;-74
2021/06/22 01:36:22;;;;;;;9.02;5.00;;;;;;;16.69;82.38;100038.28;5042442;28;20029;-75
2021/06/22 01:38:48;;;;;;;9.82;5.03;;;;;;;16.67;82.22;100045.41;5042664;28;20033;-75
2021/06/22 01:41:13;;;;;;;10.27;5.53;;;;;;;16.66;82.44;100049.34;5045339;28;20029;-74
2021/06/22 01:43:39;;;;;;;7.55;4.90;;;;;;;16.66;82.84;100043.75;5039443;28;20071;-74
2021/06/22 01:46:04;;;;;;;9.57;5.45;;;;;;;16.66;82.91;100047.38;5043802;28;20436;-74
2021/06/22 01:48:30;;;;;;;13.82;5.95;;;;;;;16.60;83.20;100045.13;5046928;28;20595;-74
2021/06/22 01:50:56;;;;;;;11.35;6.28;;;;;;;16.57;83.28;100041.03;5039765;28;20394;-74
2021/06/22 01:53:22;;;;;;;11.25;5.32;;;;;;;16.60;83.14;100045.13;5050281;28;20039;-74
2021/06/22 01:55:49;;;;;;;8.10;4.95;;;;;;;16.60;83.17;100047.94;5043699;28;20107;-75
2021/06/22 01:58:15;;;;;;;12.15;6.28;;;;;;;16.62;83.15;100048.41;5044858;28;20429;-74
2021/06/22 02:00:45;;;;;;;10.07;6.07;;;;;;;16.56;83.59;100047.81;5040806;28;20498;-75
2021/06/22 02:03:17;;;;;;;9.80;5.43;;;;;;;16.55;83.63;100049.00;5032659;28;20037;-76
2021/06/22 02:05:43;;;;;;;11.23;5.55;;;;;;;16.55;83.72;100049.00;5032501;28;20029;-76
2021/06/22 02:08:09;;;;;;;13.43;7.45;;;;;;;16.51;84.06;100042.41;5038805;28;20104;-75
2021/06/22 02:10:35;;;;;;;11.20;6.70;;;;;;;16.52;84.03;100041.28;5024249;28;20089;-75
2021/06/22 02:13:00;;;;;;;12.30;6.63;;;;;;;16.51;84.49;100042.41;5052592;28;20033;-75
2021/06/22 02:15:26;;;;;;;13.25;7.18;;;;;;;16.48;84.63;100040.31;5045547;28;20025;-75
2021/06/22 02:17:51;;;;;;;11.27;6.40;;;;;;;16.46;84.53;100039.84;5049922;28;20036;-75
2021/06/22 02:20:17;;;;;;;16.60;8.25;;;;;;;16.37;85.62;100041.91;5046419;28;20040;-76
2021/06/22 02:22:42;;;;;;;14.07;7.07;;;;;;;16.38;84.53;100041.56;5040697;28;20040;-76
2021/06/22 02:25:09;;;;;;;11.57;6.40;;;;;;;16.39;84.90;100037.59;5051280;28;20025;-76
2021/06/22 02:27:34;;;;;;;15.38;7.80;;;;;;;16.30;86.03;100042.47;5044100;28;20089;-76
2021/06/22 02:30:00;;;;;;;14.13;7.95;;;;;;;16.23;85.73;100043.00;5024495;28;20540;-76
2021/06/22 02:32:26;;;;;;;14.88;9.50;;;;;;;16.16;87.08;100039.13;5042527;28;20033;-76
2021/06/22 02:34:51;;;;;;;14.80;8.07;;;;;;;16.14;86.85;100039.47;5042705;28;20504;-76
2021/06/22 02:37:17;;;;;;;13.00;7.30;;;;;;;16.17;85.78;100036.00;5044744;28;20037;-75
2021/06/22 02:39:44;;;;;;;12.23;7.97;;;;;;;16.13;86.23;100032.25;5046925;28;20033;-75
2021/06/22 02:42:10;;;;;;;10.82;7.10;;;;;;;16.14;85.31;100028.28;5038959;28;20063;-76
2021/06/22 02:44:35;;;;;;;11.80;7.47;;;;;;;16.17;85.23;100030.38;5050343;28;20033;-76
2021/06/22 02:47:01;;;;;;;13.75;8.52;;;;;;;16.15;86.14;100035.50;5049238;28;20047;-75
2021/06/22 02:49:26;;;;;;;10.13;7.18;;;;;;;16.14;85.50;100033.88;5038838;28;20036;-74
2021/06/22 02:51:52;;;;;;;14.68;7.32;;;;;;;16.14;85.22;100042.28;5044626;28;20034;-75
2021/06/22 02:54:17;;;;;;;14.20;7.32;;;;;;;16.12;86.12;100039.00;5026435;28;20029;-75
2021/06/22 02:56:43;;;;;;;11.93;6.80;;;;;;;16.11;85.22;100045.78;5039826;28;20045;-75
2021/06/22 02:59:08;;;;;;;11.32;7.15;;;;;;;16.13;84.73;100042.59;5040357;28;20036;-75
2021/06/22 03:01:34;;;;;;;17.75;10.23;;;;;;;15.96;87.87;100050.00;5022995;28;20021;-74
2021/06/22 03:03:59;;;;;;;14.65;7.82;;;;;;;16.00;86.49;100047.34;5053053;28;20025;-75
2021/06/22 03:06:25;;;;;;;13.93;8.68;;;;;;;15.93;87.16;100045.06;5043428;28;20036;-74
2021/06/22 03:08:50;;;;;;;16.58;8.70;;;;;;;15.90;87.08;100044.94;5041063;28;20033;-75
2021/06/22 03:11:16;;;;;;;19.65;11.07;;;;;;;15.78;89.21;100054.91;5047912;28;20032;-75
2021/06/22 03:13:41;;;;;;;12.98;8.10;;;;;;;15.85;86.58;100049.59;5044797;28;20037;-75
2021/06/22 03:16:07;;;;;;;15.32;8.63;;;;;;;15.90;86.85;100056.16;5045528;28;20042;-74
2021/06/22 03:18:32;;;;;;;14.02;8.55;;;;;;;15.94;86.30;100054.31;5044502;28;20025;-75
2021/06/22 03:20:58;;;;;;;17.17;9.13;;;;;;;15.81;87.71;100062.63;5043797;28;20025;-75
2021/06/22 03:23:23;;;;;;;15.77;8.68;;;;;;;15.90;86.76;100061.75;5043566;28;20069;-74
2021/06/22 03:25:49;;;;;;;12.25;8.23;;;;;;;15.93;86.18;100064.69;5035246;28;20046;-75
2021/06/22 03:28:14;;;;;;;17.13;9.43;;;;;;;15.88;86.99;100058.47;5048515;28;20033;-74
2021/06/22 03:30:42;;;;;;;23.23;13.07;;;;;;;15.84;88.54;100059.16;5043821;28;20099;-74
2021/06/22 03:33:08;;;;;;;16.25;10.02;;;;;;;15.84;87.71;100053.53;5034330;28;20122;-74
2021/06/22 03:35:34;;;;;;;14.57;9.15;;;;;;;15.83;87.09;100060.31;5045146;28;20037;-75
2021/06/22 03:38:00;;;;;;;16.05;9.30;;;;;;;15.89;86.83;100071.31;5027041;28;20021;-78
2021/06/22 03:40:25;;;;;;;21.10;11.35;;;;;;;15.88;87.47;100070.50;5044941;28;20026;-79
2021/06/22 03:42:51;;;;;;;15.05;9.77;;;;;;;15.90;86.81;100078.56;5027584;28;20059;-78
2021/06/22 03:45:16;;;;;;;17.58;10.73;;;;;;;15.86;87.47;100076.44;5038947;28;20442;-78
2021/06/22 03:47:42;;;;;;;22.77;12.95;;;;;;;15.74;88.93;100076.38;5025359;28;20478;-78
2021/06/22 03:50:09;;;;;;;19.83;12.38;;;;;;;15.75;88.30;100080.78;5010582;28;20036;-78
2021/06/22 03:52:35;;;;;;;21.23;12.20;;;;;;;15.70;88.51;100086.59;5020491;28;20057;-78
2021/06/22 03:55:00;;;;;;;20.35;12.13;;;;;;;15.74;88.10;100079.16;5044024;28;20049;-78
2021/06/22 03:57:26;;;;;;;20.48;11.43;;;;;;;15.73;88.06;100088.69;5042265;28;20389;-78
2021/06/22 03:59:52;;;;;;;26.17;13.13;;;;;;;15.58;90.17;100092.88;5017481;28;20029;-77
2021/06/22 04:02:18;;;;;;;20.40;10.93;;;;;;;15.51;89.95;100089.78;5030189;28;20033;-78
2021/06/22 04:04:44;;;;;;;21.23;11.27;;;;;;;15.42;90.75;100091.81;5007404;28;20037;-78
2021/06/22 04:07:09;;;;;;;18.55;10.07;;;;;;;15.49;89.65;100092.13;5043861;28;20038;-78
2021/06/22 04:09:35;;;;;;;17.05;9.25;;;;;;;15.52;88.68;100097.03;5015248;28;20021;-78
2021/06/22 04:12:00;;;;;;;17.27;10.00;;;;;;;15.46;90.24;100097.56;5041819;28;20051;-77
2021/06/22 04:14:26;;;;;;;14.70;9.50;;;;;;;15.40;90.00;100100.53;5042105;28;20036;-78
2021/06/22 04:16:51;;;;;;;14.93;9.25;;;;;;;15.41;90.25;100095.78;5031136;28;20036;-77
2021/06/22 04:19:17;;;;;;;13.25;7.72;;;;;;;15.46;88.82;100098.41;5015147;28;20432;-77
2021/06/22 04:21:42;;;;;;;16.98;8.48;;;;;;;15.40;89.38;100100.53;5023872;28;20384;-77
2021/06/22 04:24:08;;;;;;;13.25;7.60;;;;;;;15.40;89.17;100102.50;5024773;28;20037;-77
2021/06/22 04:26:33;;;;;;;11.60;6.93;;;;;;;15.44;88.08;100100.69;5037658;28;20104;-77
2021/06/22 04:28:59;;;;;;;12.27;6.78;;;;;;;15.49;88.05;100108.91;5043332;28;20052;-77
2021/06/22 04:31:24;;;;;;;15.20;8.88;;;;;;;15.35;90.04;100114.75;5041278;28;20025;-77
2021/06/22 04:33:50;;;;;;;12.95;7.63;;;;;;;15.38;89.60;100118.84;5025151;28;20033;-78
2021/06/22 04:36:15;;;;;;;11.52;6.53;;;;;;;15.39;89.16;100115.69;5024573;28;20072;-77
2021/06/22 04:38:41;;;;;;;15.43;7.28;;;;;;;15.33;90.05;100111.44;5034419;28;20030;-77
2021/06/22 04:41:06;;;;;;;16.77;7.55;;;;;;;15.32;89.68;100117.38;5034363;28;20037;-77
2021/06/22 04:43:32;;;;;;;11.25;6.68;;;;;;;15.26;89.46;100115.91;5022188;28;20060;-77
2021/06/22 04:45:57;;;;;;;12.75;6.78;;;;;;;15.13;90.99;100123.38;5026350;28;20048;-77
2021/06/22 04:48:23;;;;;;;12.80;6.70;;;;;;;15.25;89.58;100120.69;5044195;28;20037;-77
2021/06/22 04:50:48;;;;;;;11.00;6.78;;;;;;;15.11;90.92;100120.09;5014284;28;20060;-77
2021/06/22 04:53:14;;;;;;;11.90;7.00;;;;;;;15.10;90.82;100124.88;5021407;28;20060;-77
2021/06/22 04:55:39;;;;;;;15.20;7.10;;;;;;;15.09;90.77;100126.00;5042494;28;20061;-77
2021/06/22 04:58:05;;;;;;;13.82;6.57;;;;;;;15.12;90.01;100125.34;5002484;28;20025;-77
2021/06/22 05:00:31;;;;;;;10.88;5.07;;;;;;;15.17;89.07;100127.13;5043181;28;20029;-77
2021/06/22 05:02:56;;;;;;;15.52;7.78;;;;;;;15.12;90.43;100130.94;5003480;28;20148;-75
2021/06/22 05:05:22;;;;;;;10.98;6.15;;;;;;;15.10;90.10;100136.06;5043106;28;20033;-76
2021/06/22 05:07:48;;;;;;;8.32;5.68;;;;;;;15.15;89.47;100132.22;5026511;28;20064;-76
2021/06/22 05:10:13;;;;;;;12.60;6.13;;;;;;;15.16;89.05;100136.69;5024068;28;20037;-76
2021/06/22 05:12:42;;;;;;;10.52;5.80;;;;;;;15.14;89.35;100136.19;5037564;28;20036;-76
2021/06/22 05:15:09;;;;;;;13.05;7.28;;;;;;;15.07;90.37;100141.47;5028948;28;20087;-77
2021/06/22 05:17:34;;;;;;;10.80;5.63;;;;;;;15.09;89.53;100134.38;5032421;28;20486;-77
2021/06/22 05:20:00;;;;;;;13.27;5.97;;;;;;;15.13;88.85;100135.38;5029574;28;20052;-76
2021/06/22 05:22:26;;;;;;;15.32;6.45;;;;;;;15.17;88.22;100139.13;5027857;28;20413;-77
2021/06/22 05:24:51;;;;;;;13.55;6.13;;;;;;;15.10;89.39;100140.81;5026839;28;20044;-76
2021/06/22 05:27:17;;;;;;;11.98;5.88;;;;;;;15.06;90.11;100139.84;5030197;28;20021;-76
2021/06/22 05:29:42;;;;;;;11.10;5.53;;;;;;;15.09;89.25;100148.38;5026143;28;20041;-76
2021/06/22 05:32:08;;;;;;;12.15;6.63;;;;;;;15.02;90.22;100147.28;5019030;28;20524;-76
2021/06/22 05:34:34;;;;;;;14.68;6.47;;;;;;;14.86;90.82;100152.56;5045744;28;20040;-76
2021/06/22 05:36:59;;;;;;;10.55;4.80;;;;;;;14.93;89.98;100145.31;5032327;28;20029;-76
2021/06/22 05:39:25;;;;;;;12.02;4.82;;;;;;;15.02;89.05;100158.47;5046709;28;20515;-76
2021/06/22 05:41:50;;;;;;;11.45;5.40;;;;;;;15.01;89.38;100154.00;5038801;28;20389;-75
2021/06/22 05:44:16;;;;;;;11.05;5.15;;;;;;;14.88;90.24;100165.06;5030643;28;20037;-76
2021/06/22 05:46:41;;;;;;;6.13;3.78;;;;;;;14.93;89.60;100155.66;5047951;28;20033;-75
2021/06/22 05:49:07;;;;;;;8.77;4.75;;;;;;;15.00;89.38;100163.56;5004331;28;20030;-75
2021/06/22 05:51:32;;;;;;;11.10;5.13;;;;;;;14.94;90.25;100160.91;5011468;28;20029;-74
2021/06/22 05:53:58;;;;;;;11.05;4.90;;;;;;;15.00;89.61;100157.97;5044209;28;20029;-74
2021/06/22 05:56:24;;;;;;;12.05;4.35;;;;;;;15.01;89.01;100165.19;5024247;28;20072;-74
2021/06/22 05:58:49;;;;;;;10.15;3.70;;;;;;;15.03;88.69;100163.69;5040755;28;20375;-74
2021/06/22 06:01:15;;;;;;;8.20;4.18;;;;;;;15.05;88.91;100163.38;5038082;28;20033;-75
2021/06/22 06:03:40;;;;;;;9.55;4.88;;;;;;;14.93;90.12;100164.88;5031081;28;20056;-74
2021/06/22 06:06:06;;;;;;;9.85;4.30;;;;;;;15.04;89.13;100170.91;5044139;28;20040;-75
2021/06/22 06:08:33;;;;;;;7.25;4.18;;;;;;;15.07;88.78;100175.88;5058952;28;20030;-75
2021/06/22 06:11:01;;;;;;;11.57;4.00;;;;;;;15.10;88.54;100175.22;5047268;28;20375;-75
2021/06/22 06:13:34;;;;;;;9.18;4.03;;;;;;;15.10;88.42;100171.56;5036238;28;20485;-75
2021/06/22 06:16:00;;;;;;;9.80;4.60;;;;;;;15.10;88.40;100169.63;5047865;28;20029;-75
2021/06/22 06:18:26;;;;;;;8.27;4.20;;;;;;;15.07;88.81;100178.66;5047812;28;20087;-75
2021/06/22 06:20:53;;;;;;;12.25;3.95;;;;;;;15.09;88.91;100175.53;5055801;28;20032;-75
2021/06/22 06:23:19;;;;;;;8.02;3.55;;;;;;;15.12;88.63;100183.25;5026457;28;20048;-74
2021/06/22 06:25:46;;;;;;;8.52;4.28;;;;;;;15.11;88.89;100184.41;5042163;28;20507;-74
2021/06/22 06:28:16;;;;;;;11.50;4.32;;;;;;;15.07;89.29;100189.84;5037429;28;20144;-74
2021/06/22 06:30:42;;;;;;;8.77;4.13;;;;;;;15.09;89.15;100181.94;5043604;28;20440;-74
2021/06/22 06:33:09;;;;;;;6.45;3.75;;;;;;;15.09;89.26;100186.72;5042433;28;20041;-75
2021/06/22 06:35:34;;;;;;;8.48;3.67;;;;;;;15.11;89.01;100195.59;5033862;28;20037;-75
2021/06/22 06:38:00;;;;;;;9.68;3.40;;;;;;;15.13;89.00;100193.31;5039093;28;20045;-75
2021/06/22 06:40:25;;;;;;;8.38;3.58;;;;;;;15.05;89.46;100196.94;5007761;28;20032;-74
2021/06/22 06:42:51;;;;;;;7.22;2.97;;;;;;;15.18;88.81;100193.09;5026450;28;20083;-75
2021/06/22 06:45:17;;;;;;;8.18;3.38;;;;;;;15.13;89.69;100193.31;5009929;28;20036;-74
2021/06/22 06:47:43;;;;;;;6.40;3.33;;;;;;;15.09;90.08;100195.09;5018932;28;20037;-74
2021/06/22 06:50:09;;;;;;;6.55;2.80;;;;;;;15.13;89.35;100199.72;5029109;28;20084;-75
2021/06/22 06:52:34;;;;;;;6.45;2.92;;;;;;;15.14;89.85;100192.94;5010685;28;20070;-75
2021/06/22 06:55:00;;;;;;;7.32;2.75;;;;;;;15.17;89.88;100203.47;5030367;28;20029;-74
2021/06/22 06:57:25;;;;;;;5.78;2.50;;;;;;;15.15;90.08;100202.97;5007100;28;20128;-75
2021/06/22 06:59:51;;;;;;;8.20;2.97;;;;;;;15.14;89.75;100204.16;5023533;28;20033;-75
2021/06/22 07:02:16;;;;;;;4.13;2.38;;;;;;;15.18;89.51;100201.50;5031642;28;20075;-74
2021/06/22 07:04:42;;;;;;;6.55;2.20;;;;;;;15.16;89.56;100204.63;5030081;28;20054;-74
2021/06/22 07:07:07;;;;;;;5.18;2.63;;;;;;;15.16;90.10;100215.00;5027145;28;20030;-74
2021/06/22 07:09:33;;;;;;;5.88;2.30;;;;;;;15.15;90.11;100216.16;5045648;28;20103;-74
2021/06/22 07:11:59;;;;;;;5.22;2.30;;;;;;;15.19;89.46;100219.94;5006023;28;20032;-75
2021/06/22 07:14:25;;;;;;;7.68;1.90;;;;;;;15.21;90.05;100220.44;5028431;28;20036;-74
2021/06/22 07:16:51;;;;;;;6.68;1.83;;;;;;;15.25;89.33;100218.59;5043738;28;20024;-75
2021/06/22 07:19:16;;;;;;;6.00;2.20;;;;;;;15.21;89.98;100234.44;5039119;28;20406;-74
2021/06/22 07:21:42;;;;;;;5.68;1.85;;;;;;;15.19;89.94;100229.16;5035571;28;20049;-74
2021/06/22 07:24:07;;;;;;;4.90;1.95;;;;;;;15.22;90.55;100230.47;5026246;28;20556;-74
2021/06/22 07:26:36;;;;;;;5.70;2.08;;;;;;;15.16;90.27;100231.78;5014600;28;20041;-74
2021/06/22 07:29:02;;;;;;;5.65;1.83;;;;;;;15.22;90.38;100230.47;5003953;28;20018;-74
2021/06/22 07:31:28;;;;;;;3.70;1.75;;;;;;;15.26;90.19;100233.41;5022141;28;20032;-78
2021/06/22 07:33:53;;;;;;;5.82;2.15;;;;;;;15.29;89.85;100236.34;5023493;28;20057;-75
2021/06/22 07:36:19;;;;;;;4.68;1.70;;;;;;;15.31;90.37;100236.03;5011216;28;20048;-74
2021/06/22 07:38:45;;;;;;;11.65;2.20;;;;;;;15.32;90.73;100241.31;4998691;28;20049;-74
2021/06/22 07:41:10;;;;;;;3.85;1.75;;;;;;;15.33;90.60;100233.75;5036639;28;20044;-74
2021/06/22 07:43:36;;;;;;;4.60;1.67;;;;;;;15.30;90.99;100240.81;4994170;28;20032;-74
2021/06/22 07:46:01;;;;;;;6.32;1.35;;;;;;;15.35;90.24;100248.19;5004405;28;20509;-74
2021/06/22 07:48:27;;;;;;;3.28;1.40;;;;;;;15.40;89.93;100246.03;5031808;28;20057;-74
2021/06/22 07:50:52;;;;;;;6.65;1.58;;;;;;;15.42;90.25;100243.72;5007635;28;20473;-74
2021/06/22 07:53:19;;;;;;;3.72;1.77;;;;;;;15.36;89.93;100249.84;5021921;28;20037;-74
2021/06/22 07:55:45;;;;;;;2.53;1.38;;;;;;;15.36;89.88;100249.84;5032214;28;20128;-75
2021/06/22 07:58:10;;;;;;;3.28;1.30;;;;;;;15.30;90.19;100246.41;5019563;28;20051;-75
2021/06/22 08:03:04;;;;;;;3.42;1.40;;;;;;;15.35;89.84;100245.38;5023511;28;20481;-75
2021/06/22 08:05:29;;;;;;;2.80;1.20;;;;;;;15.44;89.89;100248.19;5040669;28;20076;-75
2021/06/22 08:07:55;;;;;;;6.03;1.27;;;;;;;15.35;90.13;100249.03;5030197;28;20030;-74
2021/06/22 08:10:20;;;;;;;2.78;0.85;;;;;;;15.47;89.45;100250.31;5023784;28;20534;-74
2021/06/22 08:12:46;;;;;;;2.85;0.90;;;;;;;15.53;89.36;100251.78;5024853;28;20037;-74
2021/06/22 08:15:12;;;;;;;1.63;0.75;;;;;;;15.61;89.06;100253.75;5042897;28;20029;-74
2021/06/22 08:17:37;;;;;;;1.52;0.85;;;;;;;15.67;88.88;100260.78;5018083;28;20055;-74
2021/06/22 08:20:04;;;;;;;2.30;0.90;;;;;;;15.71;88.49;100256.22;5027900;28;20474;-74
2021/06/22 08:22:30;;;;;;;1.95;0.70;;;;;;;15.74;87.80;100261.16;5025702;28;20036;-74
2021/06/22 08:24:55;;;;;;;2.90;0.77;;;;;;;15.78;88.00;100262.09;5022697;28;20033;-74
2021/06/22 08:27:21;;;;;;;1.52;0.70;;;;;;;15.83;87.74;100253.53;5009398;28;20207;-74
2021/06/22 08:29:47;;;;;;;1.67;0.68;;;;;;;15.91;87.50;100265.00;5041515;28;20036;-74
2021/06/22 08:32:12;;;;;;;1.00;0.70;;;;;;;15.84;87.41;100260.75;5002560;28;20044;-75
2021/06/22 08:34:38;;;;;;;1.38;0.70;;;;;;;15.89;87.02;100259.75;5006709;28;20386;-74
2021/06/22 08:37:03;;;;;;;1.52;0.68;;;;;;;15.93;86.88;100268.31;5020523;28;20474;-75
2021/06/22 08:39:29;;;;;;;0.57;0.50;;;;;;;15.98;86.72;100268.94;5017495;28;20021;-75
2021/06/22 08:41:54;;;;;;;1.63;0.80;;;;;;;15.93;86.72;100268.31;5025099;28;20035;-74
2021/06/22 08:44:20;;;;;;;2.72;0.70;;;;;;;15.95;86.88;100257.59;5009569;28;20080;-74
2021/06/22 08:46:45;;;;;;;2.67;0.80;;;;;;;15.89;86.36;100264.53;5029827;28;20044;-74
2021/06/22 08:49:14;;;;;;;2.30;0.70;;;;;;;15.90;86.37;100263.38;4987422;28;20032;-74
2021/06/22 08:51:41;;;;;;;2.22;0.55;;;;;;;15.98;86.76;100270.91;5032631;28;20033;-75
2021/06/22 08:54:07;;;;;;;1.75;0.70;;;;;;;15.94;86.40;100269.97;5011518;28;20032;-74
2021/06/22 08:56:32;;;;;;;2.05;0.70;;;;;;;15.86;87.66;100261.25;5006376;28;20042;-75
2021/06/22 08:58:58;;;;;;;1.73;0.70;;;;;;;15.83;87.83;100272.31;5045294;28;20451;-75
2021/06/22 09:01:23;;;;;;;2.88;0.75;;;;;;;15.88;87.59;100277.72;5037201;28;20037;-74
2021/06/22 09:03:49;;;;;;;2.15;0.68;;;;;;;15.97;88.00;100280.50;5013980;28;20032;-75
2021/06/22 09:06:14;;;;;;;1.77;0.77;;;;;;;15.93;88.23;100277.50;5027060;28;20033;-75
2021/06/22 09:08:41;;;;;;;2.53;0.80;;;;;;;15.89;88.09;100278.53;5022732;28;20044;-75
2021/06/22 09:11:10;;;;;;;3.40;0.82;;;;;;;15.82;89.25;100279.03;5014457;28;20107;-75
2021/06/22 09:13:37;;;;;;;2.15;1.20;;;;;;;15.75;89.53;100290.78;5027542;28;20037;-75
2021/06/22 09:16:03;;;;;;;2.42;1.02;;;;;;;15.69;90.06;100286.50;5020269;28;20067;-75
2021/06/22 09:18:33;;;;;;;1.83;1.00;;;;;;;15.69;89.85;100283.72;5012768;28;20065;-75
2021/06/22 09:21:05;;;;;;;2.20;1.13;;;;;;;15.68;89.69;100284.00;5027231;28;20044;-75
2021/06/22 09:23:35;;;;;;;1.70;0.80;;;;;;;15.59;89.85;100286.84;5022464;28;20025;-74
2021/06/22 09:26:08;;;;;;;2.25;0.70;;;;;;;15.63;90.30;100297.03;5026243;28;20033;-75
2021/06/22 09:28:34;;;;;;;2.47;0.80;;;;;;;15.55;91.14;100292.28;5007737;28;20033;-75
2021/06/22 09:31:01;;;;;;;2.35;0.60;;;;;;;15.57;90.95;100291.94;5020942;28;20406;-74
2021/06/22 09:33:34;;;;;;;2.53;0.90;;;;;;;15.50;90.83;100289.66;5031439;28;20025;-74
2021/06/22 09:36:20;;;;;;;1.48;0.75;;;;;;;15.51;91.16;100291.28;5042056;28;20052;-75
2021/06/22 09:38:50;;;;;;;1.92;0.70;;;;;;;15.57;91.33;100291.94;5047996;28;20055;-75
2021/06/22 09:41:21;;;;;;;3.58;0.80;;;;;;;15.48;91.64;100297.56;5025561;28;20048;-74
2021/06/22 09:44:07;;;;;;;3.30;0.90;;;;;;;15.48;92.29;100297.56;5021061;28;20108;-75
2021/06/22 09:46:41;;;;;;;3.13;0.80;;;;;;;15.48;92.13;100302.34;5012930;28;20057;-75
2021/06/22 09:49:21;;;;;;;1.77;0.80;;;;;;;15.42;91.42;100299.69;5009002;28;20093;-75
2021/06/22 09:52:01;;;;;;;1.35;0.70;;;;;;;15.46;92.39;100304.63;5038153;28;20033;-75
2021/06/22 09:54:30;;;;;;;1.08;0.60;;;;;;;15.52;92.30;100308.94;5042613;28;20025;-75
2021/06/22 09:56:55;;;;;;;2.20;0.60;;;;;;;15.61;92.23;100301.31;5029372;28;20048;-74
2021/06/22 09:59:21;;;;;;;2.10;0.65;;;;;;;15.65;93.19;100307.88;5040845;28;20034;-75
2021/06/22 10:01:47;;;;;;;2.45;0.90;;;;;;;15.68;91.80;100301.66;5036041;28;20035;-74
2021/06/22 10:04:22;;;;;;;1.23;0.57;;;;;;;15.77;93.09;100310.06;4994841;28;20025;-74
2021/06/22 10:06:50;;;;;;;3.60;0.80;;;;;;;15.81;93.12;100300.63;5035869;28;20033;-74
2021/06/22 10:09:20;;;;;;;1.65;0.70;;;;;;;15.80;93.29;100307.41;5010221;28;20045;-75
2021/06/22 10:11:45;;;;;;;1.77;0.80;;;;;;;15.88;93.73;100305.72;5025859;28;20041;-74
2021/06/22 10:14:23;;;;;;;1.50;0.60;;;;;;;15.98;92.58;100304.53;5008092;28;20056;-75
2021/06/22 10:16:48;;;;;;;2.33;0.80;;;;;;;15.97;91.17;100309.31;5013388;28;20433;-75
2021/06/22 10:19:14;;;;;;;0.90;0.60;;;;;;;16.01;90.82;100306.66;5025265;28;20060;-76
2021/06/22 10:21:39;;;;;;;1.58;0.60;;;;;;;16.04;90.72;100309.59;5026468;28;20080;-77
2021/06/22 10:24:05;;;;;;;1.23;0.65;;;;;;;15.97;89.62;100305.69;5024847;28;20034;-70
2021/06/22 10:26:31;;;;;;;2.15;0.73;;;;;;;15.97;89.75;100305.69;5040456;28;20025;-73
2021/06/22 10:28:58;;;;;;;2.58;0.60;;;;;;;16.04;90.68;100314.38;5023442;28;20037;-70
2021/06/22 10:31:23;;;;;;;1.77;0.50;;;;;;;16.04;90.14;100309.59;5008445;28;20030;-70
2021/06/22 10:33:49;;;;;;;1.27;0.52;;;;;;;16.14;89.52;100308.41;5003931;28;20033;-70
2021/06/22 10:36:34;;;;;;;3.30;0.93;;;;;;;16.08;87.75;100321.78;5028920;28;20029;-70
2021/06/22 10:39:04;;;;;;;1.52;0.60;;;;;;;16.08;87.58;100318.16;5050878;28;20029;-70
2021/06/22 10:41:37;;;;;;;1.20;0.60;;;;;;;16.08;86.58;100326.56;5022664;28;20029;-70
2021/06/22 10:44:24;;;;;;;2.40;0.50;;;;;;;16.13;86.67;100320.78;5011756;28;20425;-69
2021/06/22 10:47:29;;;;;;;1.52;0.52;;;;;;;16.28;86.96;100325.81;5037964;28;20404;-80
2021/06/22 10:50:16;;;;;;;2.63;0.57;;;;;;;16.39;85.79;100333.84;5024510;28;20087;-80
2021/06/22 10:52:42;;;;;;;0.80;0.50;;;;;;;16.46;84.63;100326.53;5042330;28;20034;-72
2021/06/22 10:55:08;;;;;;;3.67;0.63;;;;;;;16.48;83.44;100338.25;5041281;28;20032;-71
2021/06/22 10:57:56;;;;;;;1.25;0.40;;;;;;;16.56;83.09;100339.34;5038017;28;20452;-71
2021/06/22 11:00:24;;;;;;;1.02;0.40;;;;;;;16.67;82.72;100332.19;5038402;28;20049;-71
2021/06/22 11:03:08;;;;;;;3.17;0.60;;;;;;;16.82;83.92;100329.97;5025582;28;20033;-71
2021/06/22 11:05:35;;;;;;;2.00;0.52;;;;;;;17.04;84.15;100326.84;5038696;28;20041;-72
2021/06/22 11:08:10;;;;;;;1.20;0.40;;;;;;;17.37;82.84;100324.09;5035837;28;20097;-71
2021/06/22 11:10:36;;;;;;;1.60;0.30;;;;;;;17.68;82.44;100330.41;5041095;28;20025;-72
2021/06/22 11:13:02;;;;;;;0.80;0.40;;;;;;;17.89;79.31;100336.00;5022208;28;20036;-72
2021/06/22 11:15:51;;;;;;;0.82;0.30;;;;;;;17.93;77.62;100329.31;5033176;28;20036;-72
2021/06/22 11:18:18;;;;;;;1.35;0.30;;;;;;;18.14;77.37;100334.88;5027775;28;20025;-72
2021/06/22 11:21:04;;;;;;;1.05;0.60;;;;;;;18.11;75.98;100329.09;5022991;28;20025;-72
2021/06/22 11:23:29;;;;;;;1.70;0.50;;;;;;;18.14;76.09;100336.88;5016231;28;20052;-71